Station Historical Data
Daily Summary for May 8, 2017 Units:  English    Metric   Both
« Previous Day
Next Day »
Daily Weekly Monthly Yearly Custom
  High: Low: Average:
Temperature: 76.1 °F 50.6 °F 62.8 °F
Dew Point: 53.0 °F 43.6 °F 47.2 °F
Humidity: 82% 35% 59%
Wind Speed: 1.0mph 0.0mph 0.2mph
Wind Gust: 6.0mph - -
Wind- - SSW
Pressure: 30.16 in 30.04 in -
Precipitation: 0.00 in    
Historical Graphs
 
 
Tabular Data for May 8, 2017
Time Temperature Dew Point Pressure Wind Wind Speed Wind Gust Humidity Rainfall Rate (Hourly) Conditions
00:00 53.4 °F 45.7 °F 30.05 in Calm     75% 0.00 in SCT
00:15 53.2 °F 45.1 °F 30.04 in Calm     74% 0.00 in SCT
00:30 53.2 °F 45.1 °F 30.04 in Calm     74% 0.00 in SCT
00:45 52.1 °F 45.5 °F 30.05 in Calm     78% 0.00 in SCT
01:00 51.6 °F 45.6 °F 30.05 in Calm     80% 0.00 in SCT
01:15 51.1 °F 45.5 °F 30.05 in Calm     81% 0.00 in SCT
01:30 53.2 °F 45.1 °F 30.04 in Calm     74% 0.00 in SCT
01:45 50.6 °F 45.3 °F 30.05 in Calm     82% 0.00 in SCT
02:00 50.6 °F 45.3 °F 30.05 in Calm     82% 0.00 in SCT
02:15 50.6 °F 45.3 °F 30.05 in Calm     82% 0.00 in SCT
02:30 52.4 °F 44.0 °F 30.05 in Calm     73% 0.00 in SCT
02:45 52.4 °F 44.0 °F 30.06 in Calm     73% 0.00 in SCT
03:00 52.4 °F 44.0 °F 30.05 in Calm     73% 0.00 in SCT
03:15 52.2 °F 43.8 °F 30.06 in Calm     73% 0.00 in SCT
03:30 52.1 °F 43.7 °F 30.06 in Calm     73% 0.00 in SCT
03:45 51.9 °F 43.9 °F 30.06 in Calm     74% 0.00 in SCT
04:00 51.3 °F 43.6 °F 30.06 in Calm     75% 0.00 in SCT
04:15 51.4 °F 43.8 °F 30.07 in Calm     75% 0.00 in SCT
04:30 51.4 °F 43.8 °F 30.07 in Calm     75% 0.00 in SCT
04:45 51.3 °F 43.6 °F 30.07 in Calm     75% 0.00 in SCT
05:00 51.3 °F 43.6 °F 30.07 in Calm     75% 0.00 in SCT
05:15 51.4 °F 43.8 °F 30.08 in Calm     75% 0.00 in SCT
05:30 51.4 °F 43.8 °F 30.08 in Calm     75% 0.00 in SCT
05:45 51.3 °F 43.6 °F 30.07 in Calm     75% 0.00 in SCT
06:00 51.4 °F 43.8 °F 30.09 in Calm     75% 0.00 in SCT
06:15 51.4 °F 43.8 °F 30.09 in Calm     75% 0.00 in SCT
06:30 51.4 °F 43.8 °F 30.09 in Calm     75% 0.00 in SCT
06:45 51.3 °F 43.6 °F 30.10 in Calm     75% 0.00 in SCT
07:00 51.3 °F 43.6 °F 30.11 in Calm     75% 0.00 in SCT
07:15 51.3 °F 43.6 °F 30.12 in Calm     75% 0.00 in SCT
07:30 51.4 °F 43.8 °F 30.12 in Calm     75% 0.00 in SCT
07:45 51.4 °F 43.8 °F 30.13 in Calm     75% 0.00 in SCT
08:00 51.1 °F 44.8 °F 30.13 in Calm     79% 0.00 in SCT
08:15 51.1 °F 44.8 °F 30.13 in Calm     79% 0.00 in SCT
08:30 51.1 °F 44.8 °F 30.13 in Calm     79% 0.00 in SCT
08:45 55.9 °F 46.6 °F 30.13 in Calm   1.0 mph 71% 0.00 in SCT
09:00 51.1 °F 44.8 °F 30.13 in Calm     79% 0.00 in SCT
09:15 57.8 °F 46.9 °F 30.13 in Calm     67% 0.00 in SCT
09:30 62.4 °F 47.4 °F 30.13 in Calm   2.0 mph 58% 0.00 in SCT
09:45 63.3 °F 48.3 °F 30.13 in Calm   1.0 mph 58% 0.00 in SCT
10:00 65.0 °F 49.4 °F 30.14 in Calm   3.0 mph 57% 0.00 in SCT
10:15 66.1 °F 46.9 °F 30.14 in Calm   2.0 mph 50% 0.00 in SCT
10:30 66.9 °F 47.1 °F 30.15 in Calm   3.0 mph 49% 0.00 in SCT
10:45 66.2 °F 46.5 °F 30.15 in Calm     49% 0.00 in SCT
11:00 66.2 °F 46.5 °F 30.15 in Calm     49% 0.00 in SCT
11:15 68.7 °F 48.8 °F 30.16 in Calm   1.0 mph 49% 0.00 in SCT
11:30 68.3 °F 49.5 °F 30.15 in Calm     51% 0.00 in SCT
11:45 68.9 °F 47.3 °F 30.16 in Calm   6.0 mph 46% 0.00 in SCT
12:00 69.3 °F 46.4 °F 30.15 in SSE 1.0 mph 5.0 mph 44% 0.00 in SCT
12:15 70.1 °F 47.7 °F 30.15 in Calm   6.0 mph 45% 0.00 in SCT
12:30 71.5 °F 48.4 °F 30.14 in Calm   5.0 mph 44% 0.00 in SCT
12:45 69.3 °F 46.4 °F 30.15 in SE 1.0 mph   44% 0.00 in SCT
13:00 74.3 °F 49.1 °F 30.14 in WSW 1.0 mph 5.0 mph 41% 0.00 in SCT
13:15 69.3 °F 46.4 °F 30.15 in SE 1.0 mph   44% 0.00 in SCT
13:30 74.1 °F 48.2 °F 30.13 in Calm     40% 0.00 in SCT
13:45 74.2 °F 49.0 °F 30.12 in Calm   5.0 mph 41% 0.00 in SCT
14:00 74.6 °F 48.7 °F 30.12 in WSW 1.0 mph 3.0 mph 40% 0.00 in SCT
14:15 74.2 °F 49.6 °F 30.12 in Calm   5.0 mph 42% 0.00 in SCT
14:30 74.3 °F 49.1 °F 30.12 in Calm     41% 0.00 in SCT
14:45 73.9 °F 48.1 °F 30.11 in SSW 1.0 mph 5.0 mph 40% 0.00 in SCT
15:00 74.6 °F 49.3 °F 30.10 in Calm   3.0 mph 41% 0.00 in SCT
15:15 74.0 °F 47.5 °F 30.10 in SW 1.0 mph 5.0 mph 39% 0.00 in SCT
15:30 73.7 °F 49.2 °F 30.09 in NNW 1.0 mph 3.0 mph 42% 0.00 in SCT
15:45 73.7 °F 49.2 °F 30.09 in NNW 1.0 mph 3.0 mph 42% 0.00 in SCT
16:00 74.1 °F 47.6 °F 30.08 in Calm   5.0 mph 39% 0.00 in SCT
16:15 74.4 °F 45.7 °F 30.08 in WSW 1.0 mph 6.0 mph 36% 0.00 in SCT
16:30 74.4 °F 45.0 °F 30.08 in Calm   5.0 mph 35% 0.00 in SCT
16:45 74.8 °F 47.5 °F 30.07 in Calm   3.0 mph 38% 0.00 in SCT
17:00 75.5 °F 49.5 °F 30.07 in Calm   3.0 mph 40% 0.00 in SCT
17:15 75.1 °F 49.1 °F 30.07 in Calm   2.0 mph 40% 0.00 in SCT
17:30 75.6 °F 46.8 °F 30.07 in East 1.0 mph 2.0 mph 36% 0.00 in SCT
17:45 75.1 °F 47.0 °F 30.06 in Calm   3.0 mph 37% 0.00 in SCT
18:00 76.1 °F 46.5 °F 30.07 in ESE 1.0 mph   35% 0.00 in SCT
18:15 76.1 °F 46.5 °F 30.07 in ESE 1.0 mph   35% 0.00 in SCT
18:30 74.7 °F 48.8 °F 30.06 in Calm   5.0 mph 40% 0.00 in SCT
18:45 73.6 °F 47.1 °F 30.05 in SW 1.0 mph 2.0 mph 39% 0.00 in SCT
19:00 73.6 °F 47.1 °F 30.05 in SW 1.0 mph   39% 0.00 in SCT
19:15 72.7 °F 48.3 °F 30.06 in Calm   1.0 mph 42% 0.00 in SCT
19:30 72.7 °F 48.3 °F 30.06 in Calm     42% 0.00 in SCT
19:45 70.8 °F 51.2 °F 30.06 in Calm     50% 0.00 in SCT
20:00 70.1 °F 51.7 °F 30.06 in Calm     52% 0.00 in SCT
20:15 69.0 °F 51.7 °F 30.06 in Calm     54% 0.00 in SCT
20:30 70.1 °F 51.7 °F 30.06 in Calm     52% 0.00 in SCT
20:45 67.5 °F 51.7 °F 30.06 in Calm     57% 0.00 in SCT
21:00 66.3 °F 51.1 °F 30.06 in Calm     58% 0.00 in SCT
21:15 65.7 °F 51.9 °F 30.06 in Calm     61% 0.00 in SCT
21:30 64.6 °F 51.7 °F 30.06 in Calm     63% 0.00 in SCT
21:45 64.0 °F 52.4 °F 30.06 in Calm     66% 0.00 in SCT
22:00 65.7 °F 51.9 °F 30.06 in Calm     61% 0.00 in SCT
22:15 65.7 °F 51.9 °F 30.06 in Calm     61% 0.00 in SCT
22:30 62.5 °F 53.0 °F 30.07 in Calm     71% 0.00 in SCT
22:45 65.7 °F 51.9 °F 30.06 in Calm     61% 0.00 in SCT
23:00 61.9 °F 52.8 °F 30.07 in Calm     72% 0.00 in SCT
23:15 61.5 °F 52.4 °F 30.08 in Calm     72% 0.00 in SCT
23:30 61.2 °F 52.8 °F 30.07 in Calm     74% 0.00 in SCT
23:45 60.7 °F 52.0 °F 30.08 in Calm     73% 0.00 in SCT
Piedmont Bend
Compliments of Weather Underground - 4 mb